Time;durP1;ratioP1;P1;durP2;ratioP2;P2;SDS_P1;SDS_P2;PMS_P1;PMS_P2;Temp;Humidity;BMP_temperature;BMP_pressure;BME280_temperature;BME280_humidity;BME280_pressure;Samples;Min_cycle;Max_cycle;Signal;HPM_P1;HPM_P2
2023/04/10 00:02:08;;;;;;;0.00;0.00;;;;;;;9.00;97.37;100220.91;6246619;22;20015;-73
2023/04/10 00:04:33;;;;;;;0.00;0.00;;;;;;;9.00;97.72;100220.91;6243435;22;20044;-74
2023/04/10 00:06:59;;;;;;;0.00;0.00;;;;;;;9.06;97.93;100217.13;6222843;22;20090;-73
2023/04/10 00:09:25;;;;;;;0.00;0.00;;;;;;;9.13;98.11;100223.19;6243533;22;20469;-73
2023/04/10 00:11:50;;;;;;;0.00;0.00;;;;;;;9.12;98.10;100213.34;6247647;22;20015;-71
2023/04/10 00:14:21;;;;;;;0.00;0.00;;;;;;;9.14;98.94;100213.94;6245005;22;20069;-71
2023/04/10 00:16:48;;;;;;;0.00;0.00;;;;;;;9.14;99.44;100207.63;6223683;22;20106;-74
2023/04/10 00:19:13;;;;;;;0.00;0.00;;;;;;;9.15;100.00;100203.84;6247730;22;20007;-72
2023/04/10 00:21:39;;;;;;;0.00;0.00;;;;;;;9.17;100.00;100197.03;6244263;22;20014;-73
2023/04/10 00:24:04;;;;;;;0.00;0.00;;;;;;;9.13;100.00;100187.72;6270597;22;20052;-73
2023/04/10 00:26:30;;;;;;;0.00;0.00;;;;;;;9.18;100.00;100198.66;6273048;22;20060;-72
2023/04/10 00:28:55;;;;;;;0.00;0.00;;;;;;;9.16;100.00;100186.38;6216808;22;20113;-73
2023/04/10 00:31:20;;;;;;;0.00;0.00;;;;;;;9.13;100.00;100179.53;6223606;22;20421;-71
2023/04/10 00:33:46;;;;;;;0.00;0.00;;;;;;;9.17;100.00;100180.66;6214295;22;20000;-72
2023/04/10 00:36:11;;;;;;;0.00;0.00;;;;;;;9.20;100.00;100177.41;6274819;22;20010;-76
2023/04/10 00:38:37;;;;;;;0.00;0.00;;;;;;;9.22;100.00;100166.22;6221298;22;20329;-74
2023/04/10 00:41:02;;;;;;;0.00;0.00;;;;;;;9.26;100.00;100175.53;6221876;22;20086;-74
2023/04/10 00:43:28;;;;;;;0.00;0.00;;;;;;;9.25;100.00;100177.44;6272097;22;20345;-73
2023/04/10 00:45:53;;;;;;;0.00;0.00;;;;;;;9.29;100.00;100171.44;6243087;22;20003;-73
2023/04/10 00:48:19;;;;;;;0.00;0.00;;;;;;;9.31;100.00;100174.75;6249904;22;20014;-73
2023/04/10 00:50:46;;;;;;;0.00;0.00;;;;;;;9.28;100.00;100153.44;6241873;22;20014;-74
2023/04/10 00:53:11;;;;;;;0.10;0.10;;;;;;;9.35;100.00;100159.50;6249375;22;20056;-73
2023/04/10 00:55:37;;;;;;;0.00;0.00;;;;;;;9.34;100.00;100146.94;6271016;22;20033;-73
2023/04/10 00:58:02;;;;;;;0.00;0.00;;;;;;;9.37;100.00;100146.41;6245938;22;20732;-74
2023/04/10 01:00:28;;;;;;;0.00;0.00;;;;;;;9.41;100.00;100142.06;6274839;22;20007;-73
2023/04/10 01:02:54;;;;;;;0.00;0.00;;;;;;;9.45;100.00;100148.63;6242817;22;20011;-74
2023/04/10 01:05:21;;;;;;;0.00;0.00;;;;;;;9.49;100.00;100141.56;6270992;22;20011;-73
2023/04/10 01:08:11;;;;;;;0.00;0.00;;;;;;;9.54;100.00;100141.56;6219151;22;20058;-74
2023/04/10 01:10:36;;;;;;;0.00;0.00;;;;;;;9.51;100.00;100139.38;6303589;22;20007;-72
2023/04/10 01:13:14;;;;;;;0.10;0.10;;;;;;;9.45;100.00;100132.25;6296848;22;20044;-74
2023/04/10 01:15:52;;;;;;;0.00;0.00;;;;;;;9.46;100.00;100128.41;6274526;22;20025;-74
2023/04/10 01:18:42;;;;;;;0.00;0.00;;;;;;;9.51;100.00;100125.72;6268539;22;20060;-74
2023/04/10 01:21:10;;;;;;;0.00;0.00;;;;;;;9.52;100.00;100127.38;6270752;22;20003;-73
2023/04/10 01:23:48;;;;;;;0.00;0.00;;;;;;;9.53;100.00;100115.34;6270776;22;20024;-74
2023/04/10 01:26:18;;;;;;;0.00;0.00;;;;;;;9.50;100.00;100115.88;6274724;22;20003;-73
2023/04/10 01:29:00;;;;;;;0.00;0.00;;;;;;;9.56;100.00;100109.38;6219051;22;20497;-74
2023/04/10 01:31:33;;;;;;;0.00;0.00;;;;;;;9.50;100.00;100096.78;6275411;22;20003;-73
2023/04/10 01:34:07;;;;;;;0.00;0.00;;;;;;;9.43;100.00;100085.28;6296589;22;20007;-73
2023/04/10 01:36:39;;;;;;;0.00;0.00;;;;;;;9.46;100.00;100095.66;6298067;22;20030;-73
2023/04/10 01:39:07;;;;;;;0.00;0.00;;;;;;;9.46;100.00;100083.94;6271496;22;20003;-73
2023/04/10 01:41:33;;;;;;;0.00;0.00;;;;;;;9.50;100.00;100080.41;6275019;22;20006;-73
2023/04/10 01:44:02;;;;;;;0.00;0.00;;;;;;;9.49;100.00;100076.06;6271014;22;20372;-73
2023/04/10 01:46:29;;;;;;;0.00;0.00;;;;;;;9.53;100.00;100074.41;6298717;22;20042;-73
2023/04/10 01:48:55;;;;;;;0.00;0.00;;;;;;;9.59;100.00;100072.50;6273772;22;20319;-73
2023/04/10 01:51:22;;;;;;;0.00;0.00;;;;;;;9.58;100.00;100070.91;6268907;22;20540;-74
2023/04/10 01:53:48;;;;;;;0.00;0.00;;;;;;;9.44;100.00;100043.25;6244686;22;20007;-73
2023/04/10 01:56:15;;;;;;;0.00;0.00;;;;;;;9.70;100.00;100065.19;6274493;22;20041;-74
2023/04/10 01:58:41;;;;;;;0.00;0.00;;;;;;;9.70;100.00;100057.00;6243545;22;20014;-73
2023/04/10 02:01:07;;;;;;;0.00;0.00;;;;;;;9.74;100.00;100058.09;6247971;22;20009;-74
2023/04/10 02:03:32;;;;;;;0.00;0.00;;;;;;;9.69;100.00;100053.44;6244088;22;20015;-75
2023/04/10 02:06:17;;;;;;;0.00;0.00;;;;;;;9.74;100.00;100052.66;6222963;22;20061;-73
2023/04/10 02:08:54;;;;;;;0.00;0.00;;;;;;;9.63;100.00;100034.59;6266538;22;20013;-74
2023/04/10 02:12:01;;;;;;;0.00;0.00;;;;;;;9.73;100.00;100048.28;6274815;22;20014;-73
2023/04/10 02:14:31;;;;;;;0.00;0.00;;;;;;;9.72;100.00;100054.81;6221871;22;20311;-73
2023/04/10 02:16:58;;;;;;;0.00;0.00;;;;;;;9.75;100.00;100048.81;6271357;22;19999;-75
2023/04/10 02:19:25;;;;;;;0.00;0.00;;;;;;;9.77;100.00;100046.66;6219776;22;20014;-74
2023/04/10 02:21:52;;;;;;;0.00;0.00;;;;;;;9.73;100.00;100026.44;6247222;22;20018;-75
2023/04/10 02:24:19;;;;;;;0.00;0.00;;;;;;;9.81;100.00;100047.72;6271365;22;20010;-73
2023/04/10 02:26:50;;;;;;;0.00;0.00;;;;;;;9.80;100.00;100035.19;6220536;22;20342;-73
2023/04/10 02:29:16;;;;;;;0.00;0.00;;;;;;;9.79;100.00;100033.53;6269299;22;20007;-73
2023/04/10 02:31:42;;;;;;;0.00;0.00;;;;;;;9.74;100.00;100030.81;6273602;22;20377;-74
2023/04/10 02:34:08;;;;;;;0.00;0.00;;;;;;;9.82;100.00;100038.44;6270428;22;20018;-74
2023/04/10 02:36:37;;;;;;;0.00;0.00;;;;;;;9.76;100.00;100025.88;6301125;22;19999;-74
2023/04/10 02:39:03;;;;;;;0.00;0.00;;;;;;;9.80;100.00;100029.72;6273021;22;20446;-74
2023/04/10 02:41:29;;;;;;;0.00;0.00;;;;;;;9.75;100.00;100021.50;6248728;22;20007;-73
2023/04/10 02:43:54;;;;;;;0.00;0.00;;;;;;;9.80;100.00;100029.72;6248127;22;20011;-74
2023/04/10 02:46:20;;;;;;;0.00;0.00;;;;;;;9.81;100.00;100023.16;6246044;22;20052;-72
2023/04/10 02:48:46;;;;;;;0.00;0.00;;;;;;;9.81;100.00;100028.59;6274652;22;20011;-73
2023/04/10 02:51:12;;;;;;;0.00;0.00;;;;;;;9.79;100.00;100017.16;6271928;22;20057;-73
2023/04/10 02:53:37;;;;;;;0.00;0.00;;;;;;;9.82;100.00;100024.78;6250169;22;19999;-74
2023/04/10 02:56:05;;;;;;;0.00;0.00;;;;;;;9.81;100.00;100019.59;6222108;22;20007;-75
2023/04/10 02:58:31;;;;;;;0.00;0.00;;;;;;;9.78;100.00;100020.97;6224150;22;20025;-73
2023/04/10 03:00:56;;;;;;;0.00;0.00;;;;;;;9.81;100.00;100022.34;6223929;22;20422;-73
2023/04/10 03:03:22;;;;;;;0.00;0.00;;;;;;;9.77;100.00;100031.06;6269502;22;20000;-73
2023/04/10 03:05:48;;;;;;;0.10;0.10;;;;;;;9.74;100.00;100014.41;6277281;22;20013;-74
2023/04/10 03:08:17;;;;;;;0.00;0.00;;;;;;;9.65;100.00;100026.94;6244867;22;20011;-73
2023/04/10 03:10:44;;;;;;;0.00;0.00;;;;;;;9.37;100.00;100010.75;6273814;22;20064;-73
2023/04/10 03:13:09;;;;;;;0.00;0.00;;;;;;;9.18;100.00;100024.06;6246843;22;20094;-73
2023/04/10 03:15:36;;;;;;;0.00;0.00;;;;;;;9.06;100.00;100031.66;6275212;22;20112;-72
2023/04/10 03:18:04;;;;;;;0.00;0.00;;;;;;;8.88;100.00;100003.75;6275219;22;20142;-74
2023/04/10 03:20:31;;;;;;;0.00;0.00;;;;;;;8.83;100.00;100002.91;6271583;22;20024;-73
2023/04/10 03:22:56;;;;;;;0.00;0.00;;;;;;;8.80;100.00;100012.41;6273779;22;20003;-73
2023/04/10 03:25:22;;;;;;;0.00;0.00;;;;;;;8.77;100.00;100018.41;6245423;22;20007;-73
2023/04/10 03:27:47;;;;;;;0.00;0.00;;;;;;;8.73;100.00;100014.56;6271910;22;20003;-74
2023/04/10 03:30:12;;;;;;;0.00;0.00;;;;;;;8.65;100.00;99998.72;6300228;22;20019;-74
2023/04/10 03:32:41;;;;;;;0.00;0.00;;;;;;;8.60;100.00;99996.78;6247147;22;20018;-72
2023/04/10 03:35:06;;;;;;;0.00;0.00;;;;;;;8.62;100.00;100004.69;6224424;22;19992;-74
2023/04/10 03:37:32;;;;;;;0.10;0.10;;;;;;;8.64;100.00;100007.97;6220579;22;20061;-73
2023/04/10 03:39:57;;;;;;;0.00;0.00;;;;;;;8.62;100.00;99993.81;6275283;22;20048;-73
2023/04/10 03:42:23;;;;;;;0.00;0.00;;;;;;;8.64;100.00;100003.34;6247778;22;20003;-74
2023/04/10 03:44:48;;;;;;;0.00;0.00;;;;;;;8.64;100.00;99991.63;6273217;22;20060;-75
2023/04/10 03:47:14;;;;;;;0.00;0.00;;;;;;;8.62;100.00;99980.16;6304565;22;20003;-75
2023/04/10 03:49:40;;;;;;;0.00;0.00;;;;;;;8.64;100.00;99983.44;6275861;22;20003;-75
2023/04/10 03:52:05;;;;;;;0.00;0.00;;;;;;;8.61;100.00;99962.16;6251653;22;20048;-74
2023/04/10 03:54:30;;;;;;;0.00;0.00;;;;;;;8.61;100.00;99975.78;6224259;22;20008;-73
2023/04/10 03:56:56;;;;;;;0.00;0.00;;;;;;;8.61;100.00;99976.59;6251927;22;20003;-74
2023/04/10 03:59:23;;;;;;;0.00;0.00;;;;;;;8.66;100.00;99957.56;6276406;22;20019;-74
2023/04/10 04:01:49;;;;;;;0.00;0.00;;;;;;;8.69;100.00;99961.69;6252894;22;20026;-74
2023/04/10 04:04:14;;;;;;;0.00;0.00;;;;;;;8.65;100.00;99960.56;6283232;22;20011;-74
2023/04/10 04:06:40;;;;;;;0.00;0.00;;;;;;;8.68;100.00;99960.03;6228525;22;20711;-73
2023/04/10 04:09:05;;;;;;;0.00;0.00;;;;;;;8.64;100.00;99948.00;6279207;22;20003;-74
2023/04/10 04:11:31;;;;;;;0.00;0.00;;;;;;;8.64;100.00;99937.91;6221307;22;20011;-77
2023/04/10 04:13:56;;;;;;;0.00;0.00;;;;;;;8.63;100.00;99941.75;6275518;22;20019;-74
2023/04/10 04:16:22;;;;;;;0.00;0.00;;;;;;;8.60;100.00;99923.19;6250762;22;20004;-74
2023/04/10 04:18:47;;;;;;;0.00;0.00;;;;;;;8.60;100.00;99919.63;6222264;22;20086;-73
2023/04/10 04:21:13;;;;;;;0.00;0.00;;;;;;;8.60;100.00;99922.34;6276303;22;20007;-74
2023/04/10 04:23:41;;;;;;;0.00;0.00;;;;;;;8.58;100.00;99906.28;6246952;22;20037;-74
2023/04/10 04:26:06;;;;;;;0.00;0.00;;;;;;;8.63;100.00;99897.28;6302452;22;20377;-74
2023/04/10 04:28:31;;;;;;;0.03;0.03;;;;;;;8.63;100.00;99908.19;6247962;22;20007;-75
2023/04/10 04:30:57;;;;;;;0.00;0.00;;;;;;;8.63;100.00;99897.28;6276300;22;20027;-74
2023/04/10 04:33:22;;;;;;;0.10;0.10;;;;;;;8.71;100.00;99899.53;6250331;22;20035;-74
2023/04/10 04:35:50;;;;;;;0.00;0.00;;;;;;;8.61;100.00;99883.13;6272466;22;20022;-73
2023/04/10 04:38:16;;;;;;;0.03;0.03;;;;;;;8.72;100.00;99887.53;6302811;22;20485;-74
2023/04/10 04:40:41;;;;;;;0.00;0.00;;;;;;;8.75;100.00;99884.28;6271412;22;20003;-74
2023/04/10 04:43:07;;;;;;;0.00;0.00;;;;;;;8.80;100.00;99878.03;6223383;22;20062;-74
2023/04/10 04:45:32;;;;;;;0.00;0.00;;;;;;;8.76;100.00;99858.66;6249718;22;20029;-75
2023/04/10 04:47:58;;;;;;;0.00;0.00;;;;;;;8.80;100.00;99864.38;6245262;22;20013;-75
2023/04/10 04:50:23;;;;;;;0.00;0.00;;;;;;;8.86;100.00;99869.59;6274978;22;20087;-75
2023/04/10 04:52:49;;;;;;;0.00;0.00;;;;;;;8.93;100.00;99871.25;6220235;22;20383;-75
2023/04/10 04:55:17;;;;;;;0.00;0.00;;;;;;;8.89;100.00;99862.78;6223691;22;20018;-74
2023/04/10 04:57:44;;;;;;;0.00;0.00;;;;;;;8.83;100.00;99840.13;6250131;22;20057;-74
2023/04/10 05:00:10;;;;;;;0.05;0.05;;;;;;;8.93;100.00;99852.97;6220783;22;20007;-74
2023/04/10 05:02:38;;;;;;;0.08;0.08;;;;;;;8.81;100.00;99842.31;6275762;22;19999;-74
2023/04/10 05:05:06;;;;;;;0.00;0.00;;;;;;;8.85;100.00;99837.97;6298767;22;20034;-74
2023/04/10 05:07:34;;;;;;;0.03;0.03;;;;;;;8.86;100.00;99825.97;6250878;22;20244;-74
2023/04/10 05:09:59;;;;;;;0.00;0.00;;;;;;;8.91;100.00;99834.16;6245952;22;20051;-75
2023/04/10 05:12:25;;;;;;;0.00;0.00;;;;;;;9.05;100.00;99852.72;6249586;22;20018;-75
2023/04/10 05:14:50;;;;;;;0.00;0.00;;;;;;;9.10;100.00;99847.28;6272583;22;20019;-75
2023/04/10 05:17:23;;;;;;;0.00;0.00;;;;;;;9.06;100.00;99824.38;6223035;22;20376;-75
2023/04/10 05:19:49;;;;;;;0.00;0.00;;;;;;;9.18;100.00;99837.75;6249780;22;20015;-74
2023/04/10 05:22:15;;;;;;;0.00;0.00;;;;;;;9.15;100.00;99822.72;6245676;22;20315;-74
2023/04/10 05:24:40;;;;;;;0.00;0.00;;;;;;;9.28;100.00;99828.75;6275508;22;20061;-75
2023/04/10 05:27:06;;;;;;;0.00;0.00;;;;;;;9.25;100.00;99811.81;6271724;22;20008;-74
2023/04/10 05:29:34;;;;;;;0.00;0.00;;;;;;;9.25;100.00;99800.91;6275088;22;20476;-73
2023/04/10 05:32:02;;;;;;;0.00;0.00;;;;;;;9.39;100.00;99812.13;6298443;22;20007;-74
2023/04/10 05:34:30;;;;;;;0.05;0.05;;;;;;;9.41;100.00;99811.84;6224241;22;20003;-74
2023/04/10 05:36:55;;;;;;;0.00;0.00;;;;;;;9.47;100.00;99802.56;6247294;22;20030;-73
2023/04/10 05:39:20;;;;;;;0.00;0.00;;;;;;;9.45;100.00;99782.91;6248239;22;20011;-73
2023/04/10 05:41:46;;;;;;;0.00;0.00;;;;;;;9.61;100.00;99817.28;6249213;22;20011;-74
2023/04/10 05:44:14;;;;;;;0.00;0.00;;;;;;;9.55;100.00;99799.28;6270837;22;20011;-74
2023/04/10 05:46:39;;;;;;;0.00;0.00;;;;;;;9.61;100.00;99803.63;6222259;22;20525;-73
2023/04/10 05:49:04;;;;;;;0.00;0.00;;;;;;;9.65;100.00;99814.00;6273580;22;20022;-73
2023/04/10 05:51:30;;;;;;;0.00;0.00;;;;;;;9.49;100.00;99775.81;6213858;22;20011;-74
2023/04/10 05:53:56;;;;;;;0.00;0.00;;;;;;;9.66;100.00;99793.81;6248418;22;20013;-74
2023/04/10 05:56:21;;;;;;;0.00;0.00;;;;;;;9.66;100.00;99783.69;6219190;22;20029;-73
2023/04/10 05:58:47;;;;;;;0.00;0.00;;;;;;;9.74;100.00;99806.91;6248467;22;20007;-74
2023/04/10 06:01:14;;;;;;;0.00;0.00;;;;;;;9.73;100.00;99794.34;6244687;22;20490;-74
2023/04/10 06:03:56;;;;;;;0.00;0.00;;;;;;;9.69;100.00;99787.78;6222473;22;20003;-75
2023/04/10 06:07:00;;;;;;;0.00;0.00;;;;;;;9.55;100.00;99752.88;6273508;22;20007;-75
2023/04/10 06:09:45;;;;;;;0.00;0.00;;;;;;;9.64;100.00;99772.25;6279158;22;20011;-75
2023/04/10 06:12:42;;;;;;;0.00;0.00;;;;;;;9.78;100.00;99807.97;6277619;22;20017;-75
2023/04/10 06:19:59;;;;;;;;;;;;;;;;;;;;;
2023/04/10 06:25:52;;;;;;;0.00;0.00;;;;;;;9.72;100.00;99749.00;6194300;23;20028;-74
2023/04/10 06:28:20;;;;;;;0.00;0.00;;;;;;;9.74;100.00;99736.72;6191241;22;20070;-74
2023/04/10 06:30:56;;;;;;;;;;;;;;;;;;;;;
2023/04/10 06:33:28;;;;;;;0.00;0.00;;;;;;;9.71;100.00;99722.78;6310302;22;20026;-73
2023/04/10 06:36:16;;;;;;;0.00;0.00;;;;;;;9.93;100.00;99758.78;6277666;22;20003;-74
2023/04/10 06:38:59;;;;;;;0.10;0.10;;;;;;;9.78;100.00;99720.59;6252863;22;20004;-75
2023/04/10 06:41:27;;;;;;;0.00;0.00;;;;;;;9.81;100.00;99720.03;6281507;22;20422;-74
2023/04/10 06:43:59;;;;;;;0.00;0.00;;;;;;;9.87;100.00;99734.50;6255079;22;20011;-73
2023/04/10 06:52:37;;;;;;;0.00;0.00;;;;;;;9.73;100.00;99701.50;6291659;22;20326;-74
2023/04/10 06:55:20;;;;;;;0.00;0.00;;;;;;;9.67;100.00;99683.53;6282726;22;20426;-74
2023/04/10 07:00:59;;;;;;;0.00;0.00;;;;;;;9.83;100.00;99679.63;6283164;22;20056;-73
2023/04/10 07:04:02;;;;;;;;;;;;;;;;;;;;;
2023/04/10 07:10:11;;;;;;;;;;;;;;;;;;;;;
2023/04/10 07:16:17;;;;;;;0.00;0.00;;;;;;;9.71;100.00;99644.47;6148773;23;20048;-75
2023/04/10 07:19:24;;;;;;;;;;;;;;;;;;;;;
2023/04/10 07:22:00;;;;;;;;;;;;;;;;;;;;;
2023/04/10 09:12:05;;;;;;;0.00;0.00;;;;;;;11.67;100.00;99651.16;5959012;24;20376;-76
2023/04/10 09:14:34;;;;;;;0.00;0.00;;;;;;;11.51;100.00;99628.59;5975105;23;20004;-77
2023/04/10 09:17:20;;;;;;;0.00;0.00;;;;;;;11.66;100.00;99653.03;6093429;23;20016;-78
2023/04/10 09:19:48;;;;;;;0.00;0.00;;;;;;;11.46;100.00;99620.44;6151985;23;20100;-75
2023/04/10 09:22:15;;;;;;;0.03;0.03;;;;;;;11.58;100.00;99612.63;6148521;23;20013;-76
2023/04/10 09:25:03;;;;;;;0.00;0.00;;;;;;;11.74;100.00;99609.69;6248204;22;20014;-76
2023/04/10 09:27:41;;;;;;;;;;;;;;;;;;;;;
2023/04/10 09:30:10;;;;;;;0.00;0.00;;;;;;;12.33;100.00;99613.81;6293785;22;20074;-76
2023/04/10 09:32:43;;;;;;;0.00;0.00;;;;;;;12.66;100.00;99624.84;6270672;22;20460;-76
2023/04/10 09:35:10;;;;;;;0.00;0.00;;;;;;;12.84;100.00;99616.88;6270533;22;20003;-76
2023/04/10 09:37:40;;;;;;;0.00;0.00;;;;;;;12.77;100.00;99591.75;6297548;22;19995;-77
2023/04/10 10:21:34;;;;;;;0.00;0.00;;;;;;;14.41;90.18;99632.41;6362938;22;20229;-78
2023/04/10 10:24:16;;;;;;;0.00;0.00;;;;;;;14.26;92.48;99613.50;6371528;22;20135;-80
2023/04/10 10:26:43;;;;;;;0.00;0.00;;;;;;;14.36;91.85;99607.75;6340095;22;19994;-82
2023/04/10 10:29:16;;;;;;;0.00;0.00;;;;;;;14.61;90.61;99622.84;6340080;22;20435;-80
2023/04/10 10:31:51;;;;;;;0.00;0.00;;;;;;;15.40;89.40;99623.31;6337353;22;20039;-79
2023/04/10 10:34:19;;;;;;;0.00;0.00;;;;;;;15.80;84.03;99608.69;6334694;22;19999;-78
2023/04/10 10:36:52;;;;;;;0.00;0.00;;;;;;;15.83;77.63;99586.84;6311826;22;20086;-76
2023/04/10 10:39:24;;;;;;;0.00;0.00;;;;;;;16.35;75.83;99618.34;6332526;22;19998;-76
2023/04/10 10:42:52;;;;;;;0.00;0.00;;;;;;;16.66;75.25;99607.13;6333983;22;20446;-76
2023/04/10 10:45:24;;;;;;;0.00;0.00;;;;;;;16.81;68.41;99603.03;6281606;22;20009;-76
2023/04/10 10:48:11;;;;;;;0.00;0.00;;;;;;;17.20;70.05;99581.84;6329705;22;20026;-75
2023/04/10 10:50:52;;;;;;;0.00;0.00;;;;;;;18.09;66.41;99618.94;6360552;22;20313;-78
2023/04/10 10:53:39;;;;;;;0.00;0.00;;;;;;;19.30;60.19;99626.47;6336839;22;20013;-78
2023/04/10 10:56:22;;;;;;;0.00;0.00;;;;;;;19.79;59.64;99625.75;6332862;22;20006;-77
2023/04/10 10:58:47;;;;;;;0.00;0.00;;;;;;;18.61;60.50;99620.50;6336989;22;20114;-76
2023/04/10 11:01:13;;;;;;;0.00;0.00;;;;;;;16.92;67.84;99614.56;6332813;22;20428;-77
2023/04/10 11:03:39;;;;;;;0.00;0.00;;;;;;;15.38;72.92;99620.06;6362734;22;20030;-78
2023/04/10 11:06:09;;;;;;;0.00;0.00;;;;;;;13.76;83.44;99634.34;6361580;22;20005;-79
2023/04/10 11:08:42;;;;;;;0.00;0.00;;;;;;;12.87;90.83;99606.09;6369375;22;20298;-81
2023/04/10 11:11:16;;;;;;;0.00;0.00;;;;;;;12.48;96.06;99606.47;6338378;22;20015;-79
2023/04/10 11:14:04;;;;;;;0.00;0.00;;;;;;;14.32;98.42;99610.31;6335952;22;20423;-76
2023/04/10 11:16:40;;;;;;;0.00;0.00;;;;;;;15.97;84.78;99641.03;6333221;22;20077;-78
2023/04/10 11:19:11;;;;;;;0.00;0.00;;;;;;;19.55;67.94;99599.56;6364240;22;20750;-76
2023/04/10 11:22:04;;;;;;;0.00;0.00;;;;;;;22.55;55.77;99606.34;6333331;22;20042;-77
2023/04/10 11:24:52;;;;;;;0.00;0.00;;;;;;;24.74;49.27;99613.84;6335732;22;20014;-78
2023/04/10 11:27:45;;;;;;;0.00;0.00;;;;;;;26.28;44.92;99605.94;6363496;22;20002;-77
2023/04/10 11:30:46;;;;;;;0.00;0.00;;;;;;;28.01;38.75;99620.25;6332691;22;20097;-76
2023/04/10 11:33:16;;;;;;;0.00;0.00;;;;;;;29.10;37.82;99606.53;6152978;23;20008;-78
2023/04/10 11:35:53;;;;;;;0.00;0.00;;;;;;;30.77;31.38;99641.19;6310193;22;20033;-78
2023/04/10 11:38:21;;;;;;;0.00;0.00;;;;;;;27.11;34.48;99630.66;6332235;22;19990;-77
2023/04/10 11:40:54;;;;;;;0.00;0.00;;;;;;;22.51;42.51;99621.38;6365056;22;20565;-79
2023/04/10 11:43:19;;;;;;;0.00;0.00;;;;;;;18.41;55.89;99656.16;6336247;22;20010;-77
2023/04/10 11:45:45;;;;;;;0.00;0.00;;;;;;;15.69;66.02;99613.69;6309954;22;20487;-77
2023/04/10 11:48:29;;;;;;;0.00;0.00;;;;;;;13.35;71.36;99607.72;6332825;22;20374;-78
2023/04/10 11:51:05;;;;;;;0.00;0.00;;;;;;;11.84;78.74;99598.59;6363299;22;20006;-77
2023/04/10 11:54:12;;;;;;;0.00;0.00;;;;;;;10.71;84.90;99583.47;6363967;22;20002;-78
2023/04/10 11:57:18;;;;;;;;;;;;;;;;;;;;;
2023/04/10 11:59:52;;;;;;;0.00;0.00;;;;;;;9.67;91.95;99599.69;6359302;22;20638;-77
2023/04/10 12:02:19;;;;;;;0.00;0.00;;;;;;;9.55;93.21;99570.00;6340278;22;20006;-78
2023/04/10 12:04:45;;;;;;;0.08;0.08;;;;;;;9.74;92.79;99555.72;6332353;22;20443;-77
2023/04/10 12:07:10;;;;;;;0.00;0.00;;;;;;;10.51;88.93;99601.66;6309737;22;20010;-77
2023/04/10 12:09:36;;;;;;;0.00;0.00;;;;;;;11.43;87.84;99599.13;6309442;22;20085;-77
2023/04/10 12:12:06;;;;;;;0.00;0.00;;;;;;;15.96;74.47;99603.53;6332576;22;20009;-77
2023/04/10 12:14:37;;;;;;;0.00;0.00;;;;;;;20.80;53.37;99623.19;6310444;22;20014;-76
2023/04/10 12:17:05;;;;;;;0.00;0.00;;;;;;;24.51;43.92;99627.91;6359977;22;20046;-78
2023/04/10 12:19:31;;;;;;;0.00;0.00;;;;;;;26.24;38.07;99635.09;6336582;22;20081;-79
2023/04/10 12:21:58;;;;;;;0.00;0.00;;;;;;;27.66;34.98;99630.31;6332854;22;20337;-77
2023/04/10 12:25:00;;;;;;;0.00;0.00;;;;;;;28.65;33.31;99640.16;6335632;22;20002;-79
2023/04/10 12:27:26;;;;;;;0.00;0.00;;;;;;;29.76;31.70;99642.25;6181100;23;20013;-78
2023/04/10 12:29:57;;;;;;;0.00;0.00;;;;;;;31.18;30.33;99625.31;6286663;22;20010;-77
2023/04/10 12:32:23;;;;;;;0.00;0.00;;;;;;;31.04;28.32;99622.69;6306606;22;20013;-77
2023/04/10 12:34:56;;;;;;;0.00;0.00;;;;;;;30.11;28.26;99676.97;6310047;22;19994;-78
2023/04/10 12:37:23;;;;;;;0.00;0.00;;;;;;;24.72;34.84;99607.81;6333324;22;19994;-78
2023/04/10 12:39:48;;;;;;;0.00;0.00;;;;;;;21.22;41.34;99587.38;6335759;22;20428;-78
2023/04/10 12:42:38;;;;;;;0.00;0.00;;;;;;;19.63;44.41;99648.59;6311079;22;20022;-78
2023/04/10 12:45:04;;;;;;;0.00;0.00;;;;;;;20.07;43.40;99627.78;6336161;22;20328;-78
2023/04/10 12:47:30;;;;;;;0.00;0.00;;;;;;;19.86;42.85;99648.97;6284024;22;20013;-79
2023/04/10 12:50:05;;;;;;;0.00;0.00;;;;;;;18.24;46.39;99612.81;6331735;22;20778;-78
2023/04/10 12:52:31;;;;;;;0.00;0.00;;;;;;;18.96;45.93;99625.72;6312118;22;20007;-78
2023/04/10 12:55:22;;;;;;;0.00;0.00;;;;;;;21.19;40.51;99637.34;6335930;22;20113;-78
2023/04/10 12:57:48;;;;;;;0.00;0.00;;;;;;;25.22;32.42;99632.72;6340871;22;20002;-77
2023/04/10 13:00:16;;;;;;;0.00;0.00;;;;;;;25.99;27.73;99646.13;6309749;22;20055;-79
2023/04/10 13:02:42;;;;;;;0.00;0.00;;;;;;;23.14;30.89;99637.78;6337999;22;20007;-78
2023/04/10 13:05:09;;;;;;;0.00;0.00;;;;;;;23.64;30.19;99653.75;6363803;22;20067;-77
2023/04/10 13:07:36;;;;;;;0.00;0.00;;;;;;;25.99;27.36;99635.72;6339038;22;20017;-78
2023/04/10 13:10:10;;;;;;;0.00;0.00;;;;;;;27.86;25.43;99641.13;6310977;22;20025;-78
2023/04/10 13:12:37;;;;;;;0.00;0.00;;;;;;;29.30;22.09;99651.88;6312721;22;20002;-77
2023/04/10 13:15:03;;;;;;;0.00;0.00;;;;;;;29.89;22.29;99670.75;6337981;22;20010;-78
2023/04/10 13:17:38;;;;;;;0.00;0.00;;;;;;;30.91;21.56;99636.56;6312948;22;20090;-78
2023/04/10 13:20:10;;;;;;;0.00;0.00;;;;;;;30.85;20.91;99643.91;6311910;22;20029;-77
2023/04/10 13:22:46;;;;;;;0.00;0.00;;;;;;;31.12;20.46;99652.44;6369238;22;19998;-80
2023/04/10 13:25:12;;;;;;;0.00;0.00;;;;;;;31.08;20.11;99660.16;6339739;22;20029;-81
2023/04/10 13:27:37;;;;;;;0.00;0.00;;;;;;;28.61;22.55;99637.38;6313939;22;20332;-80
2023/04/10 13:30:09;;;;;;;0.00;0.00;;;;;;;23.96;26.08;99650.69;6369522;22;20581;-82
2023/04/10 13:32:37;;;;;;;0.00;0.00;;;;;;;20.18;32.74;99635.28;6295757;22;20012;-80
2023/04/10 13:35:08;;;;;;;0.00;0.00;;;;;;;20.70;32.19;99632.81;6319637;22;20091;-81
2023/04/10 13:37:34;;;;;;;0.00;0.00;;;;;;;25.29;26.83;99651.53;6343479;22;20344;-79
2023/04/10 13:40:10;;;;;;;;;;;;;;;;;;;;;
2023/04/10 13:42:44;;;;;;;0.00;0.00;;;;;;;25.79;26.47;99605.22;6372648;22;20018;-77
2023/04/10 13:45:19;;;;;;;0.00;0.00;;;;;;;28.08;23.86;99633.50;6341646;22;19998;-76
2023/04/10 13:47:44;;;;;;;0.00;0.00;;;;;;;28.49;21.21;99601.22;6309849;22;20424;-75
2023/04/10 13:50:12;;;;;;;0.00;0.00;;;;;;;28.32;21.93;99606.53;6369218;22;19998;-77
2023/04/10 13:52:45;;;;;;;0.00;0.00;;;;;;;30.51;20.30;99605.28;6316053;22;20455;-77
2023/04/10 13:55:12;;;;;;;0.00;0.00;;;;;;;30.93;19.79;99623.63;6316714;22;20792;-75
2023/04/10 13:57:40;;;;;;;0.00;0.00;;;;;;;31.25;18.85;99605.44;6342354;22;20034;-77
2023/04/10 14:00:17;;;;;;;;;;;;;;;;;;;;;
2023/04/10 14:02:45;;;;;;;0.00;0.00;;;;;;;31.50;18.55;99644.56;6369431;22;20053;-78
2023/04/10 14:05:10;;;;;;;0.00;0.00;;;;;;;30.23;19.50;99607.19;6339337;22;20028;-76
2023/04/10 14:07:39;;;;;;;0.00;0.00;;;;;;;31.03;20.17;99609.81;6342987;22;20077;-77
2023/04/10 14:10:05;;;;;;;0.00;0.00;;;;;;;32.66;19.00;99614.16;6311602;22;20103;-77
2023/04/10 14:12:33;;;;;;;0.00;0.00;;;;;;;33.37;16.74;99616.63;6341870;22;20324;-77
2023/04/10 14:14:58;;;;;;;0.00;0.00;;;;;;;33.48;17.57;99617.16;6337783;22;20029;-76
2023/04/10 14:17:24;;;;;;;0.00;0.00;;;;;;;33.78;16.48;99609.53;6341442;22;20852;-75
2023/04/10 14:19:51;;;;;;;0.00;0.00;;;;;;;32.54;17.23;99675.84;6342094;22;20010;-76
2023/04/10 14:22:22;;;;;;;0.00;0.00;;;;;;;31.31;17.95;99608.56;6312919;22;20093;-76
2023/04/10 14:24:50;;;;;;;0.00;0.00;;;;;;;30.79;18.42;99604.06;6316511;22;20368;-78
2023/04/10 14:27:15;;;;;;;0.00;0.00;;;;;;;32.22;17.92;99624.78;6313190;22;20010;-77
2023/04/10 14:29:41;;;;;;;0.00;0.00;;;;;;;32.19;18.03;99627.22;6342578;22;20006;-79
2023/04/10 14:32:07;;;;;;;0.00;0.00;;;;;;;27.83;20.62;99602.59;6340369;22;20718;-76
2023/04/10 14:34:35;;;;;;;0.00;0.00;;;;;;;23.88;25.92;99613.47;6316911;22;20523;-78
2023/04/10 14:37:01;;;;;;;0.00;0.00;;;;;;;22.27;28.35;99617.66;6339710;22;20400;-77
2023/04/10 14:39:26;;;;;;;0.00;0.00;;;;;;;23.52;27.60;99624.88;6317629;22;20006;-76
2023/04/10 14:41:52;;;;;;;0.00;0.00;;;;;;;22.53;29.71;99610.66;6343162;22;20012;-76
2023/04/10 14:44:17;;;;;;;0.00;0.00;;;;;;;21.06;30.37;99629.06;6312568;22;20013;-77
2023/04/10 14:46:43;;;;;;;0.00;0.00;;;;;;;22.87;29.34;99610.91;6343712;22;20041;-77
2023/04/10 14:49:10;;;;;;;0.00;0.00;;;;;;;25.58;24.79;99602.25;6372978;22;20077;-77
2023/04/10 14:51:47;;;;;;;0.00;0.00;;;;;;;27.30;22.98;99627.47;6313887;22;20006;-75
2023/04/10 14:54:15;;;;;;;0.00;0.00;;;;;;;27.82;22.05;99651.59;6318728;22;20003;-76